CYMX/YMX METAR and TAF weather

Enter ICAO airport designator
Station Type Date Time Source
CYMX METAR 2019/12/06 04:00 UTC NOAA

CYMX 060400Z 26007KT 230V290 25SM FEW220 M06/M09 A2994 RMK CI1 SLP143


Station Type Date Time Source
CYMX Decoded METAR 2019/12/06 04:00 UTC NOAA

Montreal / Mirabel, Canada (CYMX) 45-41N 074-02W
Dec 05, 2019 - 11:00 PM EST / 2019.12.06 0400 UTC
Wind: from the W (260 degrees) at 8 MPH (7 KT) (direction variable):0
Visibility: 25 mile(s):0
Sky conditions: mostly clear
Temperature: 21 F (-6 C)
Windchill: 12 F (-11 C):1
Dew Point: 15 F (-9 C)
Relative Humidity: 79%
Pressure (altimeter): 29.94 in. Hg (1013 hPa)
ob: CYMX 060400Z 26007KT 230V290 25SM FEW220 M06/M09 A2994 RMK CI1 SLP143
cycle: 4

Station Type Date Time Source
CYMX TAF 2019/12/05 22:39 UTC NOAA

TAF
AMD CYMX 052222Z 0522/0618 26007KT P6SM SCT020 OVC060
TEMPO 0522/0602 P6SM -SN BKN020 OVC060
FM061300 24008KT 6SM -SN BKN020
RMK NXT FCST BY 060000Z

Example: see airport list